Time,TemperatureF,DewpointF,PressureIn,WindDirection,WindDirectionDegrees,WindSpeedMPH,WindSpeedGustMPH,Humidity,HourlyPrecipIn,Conditions,Clouds,dailyrainin,SoftwareType,DateUTC
2013-02-18 00:01:00,35.0,11.0,30.00,WSW,249,6.0,9.0,37,0.00,,,0.00,,2013-02-18 07:01:00,
2013-02-18 00:11:00,35.0,11.0,30.00,WSW,249,6.0,9.0,37,0.00,,,0.00,,2013-02-18 07:11:00,
2013-02-18 00:21:00,35.0,11.0,30.00,WSW,250,6.0,11.0,36,0.00,,,0.00,,2013-02-18 07:21:00,
2013-02-18 00:31:00,35.0,11.0,30.00,WSW,254,3.0,10.0,36,0.00,,,0.00,,2013-02-18 07:31:00,
2013-02-18 00:42:00,35.0,11.0,30.00,WSW,254,3.0,10.0,36,0.00,,,0.00,,2013-02-18 07:42:00,
2013-02-18 00:51:00,34.0,11.0,30.00,WSW,257,4.0,11.0,38,0.00,,,0.00,,2013-02-18 07:51:00,
2013-02-18 01:01:00,35.0,11.0,30.01,WSW,249,4.0,10.0,37,0.00,,,0.00,,2013-02-18 08:01:00,
2013-02-18 01:11:00,34.0,11.0,30.01,WSW,242,3.0,7.0,38,0.00,,,0.00,,2013-02-18 08:11:00,
2013-02-18 01:21:00,34.0,11.0,30.01,WSW,242,3.0,7.0,38,0.00,,,0.00,,2013-02-18 08:21:00,
2013-02-18 01:32:00,33.0,12.0,30.02,SW,226,4.0,8.0,41,0.00,,,0.00,,2013-02-18 08:32:00,
2013-02-18 01:41:00,33.0,12.0,30.02,SW,226,4.0,8.0,41,0.00,,,0.00,,2013-02-18 08:41:00,
2013-02-18 01:52:00,34.0,12.0,30.01,West,259,5.0,13.0,39,0.00,,,0.00,,2013-02-18 08:52:00,
2013-02-18 02:02:00,36.0,11.0,30.01,West,269,6.0,12.0,35,0.00,,,0.00,,2013-02-18 09:02:00,
2013-02-18 02:11:00,36.0,11.0,30.01,West,269,6.0,12.0,35,0.00,,,0.00,,2013-02-18 09:11:00,
2013-02-18 02:22:00,37.0,11.0,30.01,West,273,5.0,16.0,34,0.00,,,0.00,,2013-02-18 09:22:00,
2013-02-18 02:31:00,37.0,11.0,30.01,West,264,6.0,12.0,33,0.00,,,0.00,,2013-02-18 09:31:00,
2013-02-18 02:41:00,37.0,11.0,30.01,West,264,6.0,12.0,33,0.00,,,0.00,,2013-02-18 09:41:00,
2013-02-18 02:51:00,37.0,11.0,30.01,West,264,6.0,12.0,33,0.00,,,0.00,,2013-02-18 09:51:00,
2013-02-18 03:01:00,36.0,10.0,30.00,WSW,253,6.0,11.0,34,0.00,,,0.00,,2013-02-18 10:01:00,
2013-02-18 03:11:00,36.0,10.0,30.00,WSW,253,6.0,11.0,34,0.00,,,0.00,,2013-02-18 10:11:00,
2013-02-18 03:21:00,39.0,9.0,30.00,West,267,7.0,18.0,29,0.00,,,0.00,,2013-02-18 10:21:00,
2013-02-18 03:31:00,40.0,10.0,30.01,West,267,7.0,18.0,28,0.00,,,0.00,,2013-02-18 10:31:00,
2013-02-18 03:41:00,40.0,10.0,30.01,West,267,7.0,18.0,28,0.00,,,0.00,,2013-02-18 10:41:00,
2013-02-18 03:52:00,40.0,10.0,30.01,West,259,6.0,14.0,28,0.00,,,0.00,,2013-02-18 10:52:00,
2013-02-18 04:01:00,36.0,11.0,30.02,SSW,200,4.0,12.0,35,0.00,,,0.00,,2013-02-18 11:01:00,
2013-02-18 04:21:00,32.0,12.0,30.02,South,180,4.0,13.0,42,0.00,,,0.00,,2013-02-18 11:21:00,
2013-02-18 04:31:00,31.0,12.0,30.02,SSW,206,3.0,9.0,44,0.00,,,0.00,,2013-02-18 11:31:00,
2013-02-18 04:41:00,31.0,12.0,30.02,SSW,206,3.0,9.0,44,0.00,,,0.00,,2013-02-18 11:41:00,
2013-02-18 04:52:00,31.0,12.0,30.02,SSW,206,3.0,9.0,44,0.00,,,0.00,,2013-02-18 11:52:00,
2013-02-18 05:01:00,29.0,12.0,30.03,North,0,0.0,9.0,48,0.00,,,0.00,,2013-02-18 12:01:00,
2013-02-18 05:11:00,29.0,12.0,30.03,North,0,0.0,9.0,48,0.00,,,0.00,,2013-02-18 12:11:00,
2013-02-18 05:22:00,31.0,12.0,30.03,North,0,0.0,11.0,45,0.00,,,0.00,,2013-02-18 12:22:00,
2013-02-18 05:32:00,29.0,12.0,30.04,North,0,0.0,3.0,48,0.00,,,0.00,,2013-02-18 12:32:00,
2013-02-18 05:41:00,29.0,12.0,30.04,North,0,0.0,3.0,48,0.00,,,0.00,,2013-02-18 12:41:00,
2013-02-18 05:52:00,28.0,12.0,30.06,NW,304,3.0,11.0,50,0.00,,,0.00,,2013-02-18 12:52:00,
2013-02-18 06:01:00,28.0,12.0,30.06,West,272,1.0,5.0,50,0.00,,,0.00,,2013-02-18 13:01:00,
2013-02-18 06:22:00,27.0,12.0,30.06,North,0,0.0,3.0,53,0.00,,,0.00,,2013-02-18 13:22:00,
2013-02-18 06:31:00,25.0,12.0,30.08,North,0,0.0,3.0,57,0.00,,,0.00,,2013-02-18 13:31:00,
2013-02-18 06:42:00,25.0,12.0,30.08,North,0,0.0,3.0,57,0.00,,,0.00,,2013-02-18 13:42:00,
2013-02-18 06:52:00,24.0,11.0,30.08,North,0,0.0,2.0,58,0.00,,,0.00,,2013-02-18 13:52:00,
2013-02-18 07:02:00,23.0,12.0,30.09,North,0,0.0,1.0,62,0.00,,,0.00,,2013-02-18 14:02:00,
2013-02-18 07:11:00,23.0,12.0,30.09,North,0,0.0,1.0,62,0.00,,,0.00,,2013-02-18 14:11:00,
2013-02-18 07:21:00,23.0,13.0,30.09,North,0,0.0,1.0,64,0.00,,,0.00,,2013-02-18 14:21:00,
2013-02-18 07:32:00,22.0,12.0,30.09,North,0,0.0,1.0,66,0.00,,,0.00,,2013-02-18 14:32:00,
2013-02-18 07:41:00,22.0,12.0,30.09,North,0,0.0,1.0,66,0.00,,,0.00,,2013-02-18 14:41:00,
2013-02-18 07:53:00,22.0,12.0,30.09,North,0,0.0,1.0,66,0.00,,,0.00,,2013-02-18 14:53:00,
2013-02-18 08:01:00,21.0,12.0,30.10,North,0,0.0,0.0,69,0.00,,,0.00,,2013-02-18 15:01:00,
2013-02-18 08:11:00,21.0,12.0,30.10,North,0,0.0,0.0,69,0.00,,,0.00,,2013-02-18 15:11:00,
2013-02-18 08:22:00,23.0,16.0,30.11,North,0,0.0,0.0,74,0.00,,,0.00,,2013-02-18 15:22:00,
2013-02-18 08:31:00,25.0,17.0,30.11,North,0,0.0,2.0,70,0.00,,,0.00,,2013-02-18 15:31:00,
2013-02-18 08:41:00,25.0,17.0,30.11,North,0,0.0,2.0,70,0.00,,,0.00,,2013-02-18 15:41:00,
2013-02-18 08:52:00,28.0,19.0,30.10,North,0,0.0,1.0,68,0.00,,,0.00,,2013-02-18 15:52:00,
2013-02-18 09:01:00,29.0,18.0,30.11,North,0,0.0,1.0,63,0.00,,,0.00,,2013-02-18 16:01:00,
2013-02-18 09:11:00,29.0,18.0,30.11,North,0,0.0,1.0,63,0.00,,,0.00,,2013-02-18 16:11:00,
2013-02-18 09:21:00,33.0,17.0,30.11,North,0,0.0,2.0,51,0.00,,,0.00,,2013-02-18 16:21:00,
2013-02-18 09:32:00,33.0,17.0,30.11,North,0,0.0,2.0,51,0.00,,,0.00,,2013-02-18 16:32:00,
2013-02-18 09:42:00,33.0,17.0,30.11,North,0,0.0,2.0,51,0.00,,,0.00,,2013-02-18 16:42:00,
2013-02-18 09:51:00,36.0,18.0,30.12,SSW,201,2.0,7.0,47,0.00,,,0.00,,2013-02-18 16:51:00,
2013-02-18 10:03:00,36.0,17.0,30.11,North,0,0.0,7.0,45,0.00,,,0.00,,2013-02-18 17:03:00,
2013-02-18 10:11:00,36.0,17.0,30.11,North,0,0.0,7.0,45,0.00,,,0.00,,2013-02-18 17:11:00,
2013-02-18 10:21:00,36.0,17.0,30.11,North,0,0.0,7.0,45,0.00,,,0.00,,2013-02-18 17:21:00,
2013-02-18 10:32:00,37.0,17.0,30.11,SSE,152,3.0,11.0,43,0.00,,,0.00,,2013-02-18 17:32:00,
2013-02-18 10:41:00,37.0,17.0,30.11,SSE,152,3.0,11.0,43,0.00,,,0.00,,2013-02-18 17:41:00,
2013-02-18 10:52:00,38.0,18.0,30.12,ESE,115,2.0,11.0,43,0.00,,,0.00,,2013-02-18 17:52:00,
2013-02-18 11:01:00,38.0,17.0,30.11,SSE,159,4.0,10.0,42,0.00,,,0.00,,2013-02-18 18:01:00,
2013-02-18 11:11:00,38.0,17.0,30.11,SSE,159,4.0,10.0,42,0.00,,,0.00,,2013-02-18 18:11:00,
2013-02-18 11:22:00,40.0,16.0,30.11,SSE,165,3.0,11.0,38,0.00,,,0.00,,2013-02-18 18:22:00,
2013-02-18 11:32:00,41.0,17.0,30.12,SSE,154,6.0,10.0,37,0.00,,,0.00,,2013-02-18 18:32:00,
2013-02-18 11:43:00,41.0,17.0,30.12,SSE,154,6.0,10.0,37,0.00,,,0.00,,2013-02-18 18:43:00,
2013-02-18 11:52:00,41.0,17.0,30.12,East,89,1.0,10.0,37,0.00,,,0.00,,2013-02-18 18:52:00,
2013-02-18 12:01:00,41.0,17.0,30.12,East,89,1.0,10.0,37,0.00,,,0.00,,2013-02-18 19:01:00,
2013-02-18 12:11:00,41.0,17.0,30.12,East,89,1.0,10.0,37,0.00,,,0.00,,2013-02-18 19:11:00,
2013-02-18 12:21:00,43.0,17.0,30.11,SSE,158,6.0,9.0,35,0.00,,,0.00,,2013-02-18 19:21:00,
2013-02-18 12:33:00,44.0,17.0,30.10,ESE,118,6.0,13.0,33,0.00,,,0.00,,2013-02-18 19:33:00,
2013-02-18 12:42:00,44.0,17.0,30.10,ESE,118,6.0,13.0,33,0.00,,,0.00,,2013-02-18 19:42:00,
2013-02-18 12:51:00,45.0,17.0,30.10,SSE,164,4.0,11.0,32,0.00,,,0.00,,2013-02-18 19:51:00,
2013-02-18 13:01:00,46.0,18.0,30.08,SSE,147,5.0,13.0,32,0.00,,,0.00,,2013-02-18 20:01:00,
2013-02-18 13:11:00,46.0,18.0,30.08,SSE,147,5.0,13.0,32,0.00,,,0.00,,2013-02-18 20:11:00,
2013-02-18 13:21:00,46.0,18.0,30.08,SSE,147,5.0,13.0,32,0.00,,,0.00,,2013-02-18 20:21:00,
2013-02-18 13:32:00,46.0,18.0,30.08,SSE,147,5.0,13.0,32,0.00,,,0.00,,2013-02-18 20:32:00,
2013-02-18 13:53:00,50.0,9.0,30.06,WSW,253,5.0,15.0,19,0.00,,,0.00,,2013-02-18 20:53:00,
2013-02-18 14:02:00,50.0,12.0,30.05,SW,218,3.0,14.0,21,0.00,,,0.00,,2013-02-18 21:02:00,
2013-02-18 14:11:00,50.0,12.0,30.05,SW,218,3.0,14.0,21,0.00,,,0.00,,2013-02-18 21:11:00,
2013-02-18 14:21:00,51.0,10.0,30.05,SSW,200,3.0,10.0,19,0.00,,,0.00,,2013-02-18 21:21:00,
2013-02-18 14:32:00,51.0,10.0,30.04,WSW,253,6.0,14.0,19,0.00,,,0.00,,2013-02-18 21:32:00,
2013-02-18 14:41:00,51.0,10.0,30.04,WSW,253,6.0,14.0,19,0.00,,,0.00,,2013-02-18 21:41:00,
2013-02-18 14:52:00,51.0,10.0,30.05,SW,236,4.0,17.0,19,0.00,,,0.00,,2013-02-18 21:52:00,
2013-02-18 15:01:00,51.0,11.0,30.04,SE,140,10.0,22.0,20,0.00,,,0.00,,2013-02-18 22:01:00,
2013-02-18 15:11:00,51.0,9.0,30.04,South,180,3.0,10.0,18,0.00,,,0.00,,2013-02-18 22:11:00,
2013-02-18 15:21:00,51.0,9.0,30.04,South,180,3.0,10.0,18,0.00,,,0.00,,2013-02-18 22:21:00,
2013-02-18 15:32:00,52.0,10.0,30.04,SW,235,4.0,9.0,18,0.00,,,0.00,,2013-02-18 22:32:00,
2013-02-18 15:41:00,52.0,10.0,30.04,SW,235,4.0,9.0,18,0.00,,,0.00,,2013-02-18 22:41:00,
2013-02-18 15:52:00,51.0,10.0,30.05,NW,326,1.0,10.0,19,0.00,,,0.00,,2013-02-18 22:52:00,
2013-02-18 16:01:00,52.0,11.0,30.05,SW,236,5.0,12.0,19,0.00,,,0.00,,2013-02-18 23:01:00,
2013-02-18 16:11:00,52.0,11.0,30.05,SW,236,5.0,12.0,19,0.00,,,0.00,,2013-02-18 23:11:00,
2013-02-18 16:21:00,52.0,9.0,30.05,SW,225,6.0,11.0,17,0.00,,,0.00,,2013-02-18 23:21:00,
2013-02-18 16:31:00,51.0,6.0,30.05,SW,214,6.0,12.0,16,0.00,,,0.00,,2013-02-18 23:31:00,
2013-02-18 16:41:00,51.0,6.0,30.05,SW,214,6.0,12.0,16,0.00,,,0.00,,2013-02-18 23:41:00,
2013-02-18 16:52:00,50.0,7.0,30.05,SW,236,2.0,10.0,17,0.00,,,0.00,,2013-02-18 23:52:00,
2013-02-18 17:02:00,50.0,6.0,30.05,SSW,203,2.0,11.0,16,0.00,,,0.00,,2013-02-19 00:02:00,
2013-02-18 17:11:00,50.0,6.0,30.05,SSW,203,2.0,11.0,16,0.00,,,0.00,,2013-02-19 00:11:00,
2013-02-18 17:21:00,49.0,13.0,30.05,North,0,0.0,8.0,23,0.00,,,0.00,,2013-02-19 00:21:00,
2013-02-18 17:32:00,49.0,9.0,30.05,SSE,156,5.0,10.0,19,0.00,,,0.00,,2013-02-19 00:32:00,
2013-02-18 17:41:00,49.0,9.0,30.05,SSE,156,5.0,10.0,19,0.00,,,0.00,,2013-02-19 00:41:00,
2013-02-18 17:53:00,47.0,15.0,30.05,ESE,111,7.0,11.0,27,0.00,,,0.00,,2013-02-19 00:53:00,
2013-02-18 18:02:00,45.0,15.0,30.05,ENE,66,6.0,11.0,30,0.00,,,0.00,,2013-02-19 01:02:00,
2013-02-18 18:11:00,45.0,15.0,30.05,ENE,66,6.0,11.0,30,0.00,,,0.00,,2013-02-19 01:11:00,
2013-02-18 18:21:00,44.0,15.0,30.05,North,0,0.0,4.0,31,0.00,,,0.00,,2013-02-19 01:21:00,
2013-02-18 18:32:00,42.0,15.0,30.06,North,0,0.0,2.0,33,0.00,,,0.00,,2013-02-19 01:32:00,
2013-02-18 18:42:00,42.0,15.0,30.06,North,0,0.0,2.0,33,0.00,,,0.00,,2013-02-19 01:42:00,
2013-02-18 18:52:00,39.0,15.0,30.06,North,0,0.0,6.0,37,0.00,,,0.00,,2013-02-19 01:52:00,
2013-02-18 19:02:00,37.0,16.0,30.07,North,0,0.0,3.0,42,0.00,,,0.00,,2013-02-19 02:02:00,
2013-02-18 19:11:00,37.0,16.0,30.07,North,0,0.0,3.0,42,0.00,,,0.00,,2013-02-19 02:11:00,
2013-02-18 19:21:00,35.0,16.0,30.07,North,0,0.0,2.0,45,0.00,,,0.00,,2013-02-19 02:21:00,
2013-02-18 19:32:00,34.0,16.0,30.07,North,0,0.0,2.0,48,0.00,,,0.00,,2013-02-19 02:32:00,
2013-02-18 19:42:00,34.0,16.0,30.07,North,0,0.0,2.0,48,0.00,,,0.00,,2013-02-19 02:42:00,
2013-02-18 19:53:00,31.0,15.0,30.07,North,0,0.0,0.0,52,0.00,,,0.00,,2013-02-19 02:53:00,
2013-02-18 20:02:00,30.0,16.0,30.08,North,0,0.0,0.0,56,0.00,,,0.00,,2013-02-19 03:02:00,
2013-02-18 20:21:00,30.0,16.0,30.08,North,0,0.0,0.0,56,0.00,,,0.00,,2013-02-19 03:21:00,
2013-02-18 20:32:00,27.0,14.0,30.05,North,0,0.0,0.0,58,0.00,,,0.00,,2013-02-19 03:32:00,
2013-02-18 20:42:00,27.0,14.0,30.05,North,0,0.0,0.0,58,0.00,,,0.00,,2013-02-19 03:42:00,
2013-02-18 20:54:00,27.0,15.0,30.06,North,0,0.0,0.0,61,0.00,,,0.00,,2013-02-19 03:54:00,
2013-02-18 21:02:00,27.0,15.0,30.06,North,0,0.0,0.0,61,0.00,,,0.00,,2013-02-19 04:02:00,
2013-02-18 21:11:00,27.0,15.0,30.06,North,0,0.0,0.0,61,0.00,,,0.00,,2013-02-19 04:11:00,
2013-02-18 21:21:00,26.0,15.0,30.06,North,0,0.0,0.0,63,0.00,,,0.00,,2013-02-19 04:21:00,
2013-02-18 21:31:00,25.0,16.0,30.06,North,0,0.0,0.0,68,0.00,,,0.00,,2013-02-19 04:31:00,
2013-02-18 21:44:00,25.0,16.0,30.06,North,0,0.0,0.0,68,0.00,,,0.00,,2013-02-19 04:44:00,
2013-02-18 21:53:00,25.0,15.0,30.06,North,0,0.0,0.0,66,0.00,,,0.00,,2013-02-19 04:53:00,
2013-02-18 22:01:00,24.0,15.0,30.06,North,0,0.0,0.0,69,0.00,,,0.00,,2013-02-19 05:01:00,
2013-02-18 22:12:00,24.0,15.0,30.06,North,0,0.0,0.0,69,0.00,,,0.00,,2013-02-19 05:12:00,
2013-02-18 22:22:00,24.0,16.0,30.06,North,0,0.0,0.0,70,0.00,,,0.00,,2013-02-19 05:22:00,
2013-02-18 22:32:00,24.0,16.0,30.06,North,0,0.0,0.0,70,0.00,,,0.00,,2013-02-19 05:32:00,
2013-02-18 22:42:00,24.0,16.0,30.06,North,0,0.0,0.0,70,0.00,,,0.00,,2013-02-19 05:42:00,
2013-02-18 22:52:00,23.0,15.0,30.04,North,0,0.0,0.0,70,0.00,,,0.00,,2013-02-19 05:52:00,
2013-02-18 23:02:00,23.0,16.0,30.04,North,0,0.0,0.0,74,0.00,,,0.00,,2013-02-19 06:02:00,
2013-02-18 23:11:00,23.0,16.0,30.04,North,0,0.0,0.0,74,0.00,,,0.00,,2013-02-19 06:11:00,
2013-02-18 23:21:00,22.0,15.0,30.03,North,0,0.0,0.0,73,0.00,,,0.00,,2013-02-19 06:21:00,
2013-02-18 23:32:00,22.0,16.0,30.03,North,0,0.0,0.0,76,0.00,,,0.00,,2013-02-19 06:32:00,
2013-02-18 23:41:00,22.0,16.0,30.03,North,0,0.0,0.0,76,0.00,,,0.00,,2013-02-19 06:41:00,
2013-02-18 23:52:00,23.0,17.0,30.03,North,0,0.0,1.0,76,0.00,,,0.00,,2013-02-19 06:52:00,